createdAt,value
2016-12-27T00:00:31.715Z,38.64
2016-12-27T00:01:12.305Z,39.32
2016-12-27T00:01:52.880Z,38.64
2016-12-27T00:02:33.464Z,38.93
2016-12-27T00:03:14.057Z,38.74
2016-12-27T00:03:54.647Z,39.51
2016-12-27T00:04:35.240Z,38.54
2016-12-27T00:05:15.818Z,39.12
2016-12-27T00:05:56.420Z,38.35
2016-12-27T00:06:37.032Z,38.74
2016-12-27T00:07:17.636Z,38.83
2016-12-27T00:07:58.225Z,39.32
2016-12-27T00:08:38.827Z,38.54
2016-12-27T00:09:19.443Z,39.41
2016-12-27T00:10:00.055Z,39.41
2016-12-27T00:10:40.636Z,38.83
2016-12-27T00:11:21.220Z,38.83
2016-12-27T00:12:01.794Z,39.03
2016-12-27T00:12:42.382Z,38.93
2016-12-27T00:13:22.974Z,39.41
2016-12-27T00:14:03.565Z,39.41
2016-12-27T00:14:44.153Z,39.41
2016-12-27T00:15:24.747Z,39.32
2016-12-27T00:16:05.322Z,39.41
2016-12-27T00:16:45.914Z,39.12
2016-12-27T00:17:26.500Z,38.83
2016-12-27T00:18:07.099Z,38.93
2016-12-27T00:18:47.693Z,39.41
2016-12-27T00:19:28.276Z,38.45
2016-12-27T00:20:08.868Z,39.41
2016-12-27T00:20:49.461Z,39.12
2016-12-27T00:21:30.066Z,38.54
2016-12-27T00:22:10.667Z,39.03
2016-12-27T00:22:51.278Z,38.93
2016-12-27T00:23:31.876Z,38.54
2016-12-27T00:24:12.465Z,38.64
2016-12-27T00:24:53.074Z,39.22
2016-12-27T00:25:33.679Z,39.12
2016-12-27T00:26:14.280Z,38.83
2016-12-27T00:26:54.876Z,38.54
2016-12-27T00:27:35.463Z,38.64
2016-12-27T00:28:16.047Z,39.41
2016-12-27T00:28:56.634Z,38.74
2016-12-27T00:29:37.250Z,38.64
2016-12-27T00:30:17.845Z,38.93
2016-12-27T00:30:58.426Z,38.93
2016-12-27T00:31:39.011Z,38.64
2016-12-27T00:32:19.592Z,39.41
2016-12-27T00:33:00.187Z,39.22
2016-12-27T00:33:40.761Z,39.03
2016-12-27T00:34:21.346Z,38.93
2016-12-27T00:35:01.949Z,39.12
2016-12-27T00:35:42.555Z,38.83
2016-12-27T00:36:23.150Z,38.83
2016-12-27T00:37:03.746Z,39.51
2016-12-27T00:37:44.326Z,39.12
2016-12-27T00:38:24.918Z,39.22
2016-12-27T00:39:05.510Z,39.12
2016-12-27T00:39:46.104Z,38.93
2016-12-27T00:40:26.700Z,38.91
2016-12-27T00:41:07.298Z,39.22
2016-12-27T00:41:47.878Z,39.01
2016-12-27T00:42:28.463Z,39.01
2016-12-27T00:43:09.063Z,39.12
2016-12-27T00:43:49.645Z,39.03
2016-12-27T00:44:30.230Z,39.03
2016-12-27T00:45:10.839Z,38.93
2016-12-27T00:45:51.434Z,38.93
2016-12-27T00:46:32.035Z,38.25
2016-12-27T00:47:12.661Z,39.12
2016-12-27T00:47:53.244Z,39.12
2016-12-27T00:48:33.838Z,38.64
2016-12-27T00:49:14.437Z,39.12
2016-12-27T00:49:55.015Z,39.03
2016-12-27T00:50:35.599Z,39.01
2016-12-27T00:51:16.191Z,39.03
2016-12-27T00:51:56.789Z,38.93
2016-12-27T00:52:37.365Z,39.03
2016-12-27T00:53:17.963Z,38.93
2016-12-27T00:53:58.549Z,38.83
2016-12-27T00:54:39.157Z,38.93
2016-12-27T00:55:19.756Z,39.12
2016-12-27T00:56:00.357Z,39.11
2016-12-27T00:56:40.958Z,38.93
2016-12-27T00:57:21.559Z,38.93
2016-12-27T00:58:02.151Z,39.2
2016-12-27T00:58:42.720Z,39.12
2016-12-27T00:59:23.311Z,39.01
2016-12-27T01:00:03.893Z,38.83
2016-12-27T01:00:44.484Z,39.03
2016-12-27T01:01:25.070Z,39.01
2016-12-27T01:02:05.651Z,39.11
2016-12-27T01:02:46.236Z,38.64
2016-12-27T01:03:26.829Z,38.81
2016-12-27T01:04:07.415Z,39.03
2016-12-27T01:04:48.017Z,39.01
2016-12-27T01:05:28.609Z,38.81
2016-12-27T01:06:09.200Z,38.93
2016-12-27T01:06:49.785Z,38.91
2016-12-27T01:07:30.370Z,39.11
2016-12-27T01:08:10.953Z,39.01
2016-12-27T01:08:51.544Z,38.91
2016-12-27T01:09:32.128Z,38.91
2016-12-27T01:10:12.715Z,39.12
2016-12-27T01:10:53.314Z,39.2
2016-12-27T01:11:33.899Z,38.71
2016-12-27T01:12:14.492Z,39.11
2016-12-27T01:12:55.074Z,38.81
2016-12-27T01:13:35.652Z,38.83
2016-12-27T01:14:16.240Z,38.91
2016-12-27T01:14:56.816Z,38.93
2016-12-27T01:15:37.418Z,39.11
2016-12-27T01:16:18.004Z,38.91
2016-12-27T01:16:58.592Z,39.01
2016-12-27T01:17:39.175Z,39.11
2016-12-27T01:18:19.769Z,39.12
2016-12-27T01:19:00.371Z,38.81
2016-12-27T01:19:40.954Z,39.2
2016-12-27T01:20:21.553Z,39.2
2016-12-27T01:21:02.173Z,39.03
2016-12-27T01:21:42.755Z,39.12
2016-12-27T01:22:23.337Z,38.81
2016-12-27T01:23:03.921Z,38.91
2016-12-27T01:23:44.522Z,38.81
2016-12-27T01:24:25.117Z,39.11
2016-12-27T01:25:05.706Z,39.11
2016-12-27T01:25:46.282Z,39.01
2016-12-27T01:26:26.870Z,38.91
2016-12-27T01:27:07.460Z,38.93
2016-12-27T01:27:48.051Z,38.64
2016-12-27T01:28:28.664Z,38.83
2016-12-27T01:29:09.242Z,38.93
2016-12-27T01:29:49.822Z,39.11
2016-12-27T01:30:30.400Z,38.93
2016-12-27T01:31:10.997Z,38.83
2016-12-27T01:31:51.584Z,38.81
2016-12-27T01:32:32.166Z,38.91
2016-12-27T01:33:12.749Z,38.91
2016-12-27T01:33:53.329Z,38.93
2016-12-27T01:34:33.933Z,39.11
2016-12-27T01:35:14.512Z,38.91
2016-12-27T01:35:55.086Z,38.81
2016-12-27T01:36:35.679Z,38.91
2016-12-27T01:37:16.266Z,38.74
2016-12-27T01:37:56.857Z,39.01
2016-12-27T01:38:37.476Z,39.11
2016-12-27T01:39:18.061Z,38.81
2016-12-27T01:39:58.638Z,38.81
2016-12-27T01:40:39.224Z,38.71
2016-12-27T01:41:19.809Z,38.81
2016-12-27T01:42:00.396Z,38.74
2016-12-27T01:42:40.979Z,38.83
2016-12-27T01:43:21.571Z,38.83
2016-12-27T01:44:02.183Z,39.12
2016-12-27T01:44:42.775Z,38.93
2016-12-27T01:45:23.354Z,38.81
2016-12-27T01:46:03.953Z,38.91
2016-12-27T01:46:44.544Z,39.12
2016-12-27T01:47:25.127Z,38.83
2016-12-27T01:48:05.709Z,38.93
2016-12-27T01:48:46.306Z,38.74
2016-12-27T01:49:26.898Z,38.64
2016-12-27T01:50:07.508Z,38.62
2016-12-27T01:50:48.103Z,38.71
2016-12-27T01:51:28.700Z,38.81
2016-12-27T01:52:09.282Z,39.11
2016-12-27T01:52:49.869Z,38.71
2016-12-27T01:53:30.458Z,38.62
2016-12-27T01:54:11.062Z,38.91
2016-12-27T01:54:51.646Z,38.62
2016-12-27T01:55:32.238Z,38.93
2016-12-27T01:56:12.829Z,38.93
2016-12-27T01:56:53.429Z,38.93
2016-12-27T01:57:34.033Z,38.91
2016-12-27T01:58:14.618Z,38.91
2016-12-27T01:58:55.207Z,38.91
2016-12-27T01:59:35.787Z,38.81
2016-12-27T02:00:16.374Z,38.81
2016-12-27T02:00:56.964Z,38.91
2016-12-27T02:01:37.545Z,38.93
2016-12-27T02:02:18.149Z,38.81
2016-12-27T02:02:58.724Z,38.71
2016-12-27T02:03:39.315Z,38.81
2016-12-27T02:04:19.889Z,38.81
2016-12-27T02:05:00.471Z,38.91
2016-12-27T02:05:41.066Z,38.91
2016-12-27T02:06:21.662Z,38.91
2016-12-27T02:07:02.248Z,38.81
2016-12-27T02:07:42.831Z,38.91
2016-12-27T02:08:23.419Z,38.81
2016-12-27T02:09:04.008Z,38.81
2016-12-27T02:09:44.623Z,38.91
2016-12-27T02:10:25.237Z,38.74
2016-12-27T02:11:05.820Z,38.62
2016-12-27T02:11:46.421Z,38.62
2016-12-27T02:12:27.010Z,39.11
2016-12-27T02:13:07.590Z,38.91
2016-12-27T02:13:48.190Z,38.91
2016-12-27T02:14:28.778Z,38.81
2016-12-27T02:15:09.354Z,38.81
2016-12-27T02:15:49.942Z,38.81
2016-12-27T02:16:30.542Z,38.62
2016-12-27T02:17:11.143Z,38.91
2016-12-27T02:17:51.744Z,38.53
2016-12-27T02:18:32.324Z,38.91
2016-12-27T02:19:12.914Z,38.53
2016-12-27T02:19:53.500Z,38.71
2016-12-27T02:20:34.109Z,38.71
2016-12-27T02:21:14.690Z,38.91
2016-12-27T02:21:55.305Z,38.62
2016-12-27T02:22:35.887Z,38.71
2016-12-27T02:23:16.474Z,38.81
2016-12-27T02:23:57.075Z,38.71
2016-12-27T02:24:37.671Z,38.71
2016-12-27T02:25:18.260Z,38.71
2016-12-27T02:25:58.831Z,38.81
2016-12-27T02:26:39.413Z,38.81
2016-12-27T02:27:20.002Z,38.81
2016-12-27T02:28:00.592Z,38.91
2016-12-27T02:28:41.177Z,38.71
2016-12-27T02:29:21.768Z,38.81
2016-12-27T02:30:02.345Z,38.91
2016-12-27T02:30:42.934Z,39.2
2016-12-27T02:31:23.521Z,38.71
2016-12-27T02:32:04.111Z,38.71
2016-12-27T02:32:44.704Z,38.53
2016-12-27T02:33:25.278Z,38.62
2016-12-27T02:34:05.871Z,38.81
2016-12-27T02:34:46.452Z,38.91
2016-12-27T02:35:27.033Z,38.91
2016-12-27T02:36:07.626Z,38.91
2016-12-27T02:36:48.241Z,38.81
2016-12-27T02:37:28.831Z,38.71
2016-12-27T02:38:09.434Z,38.62
2016-12-27T02:38:50.030Z,38.81
2016-12-27T02:39:30.639Z,38.91
2016-12-27T02:40:11.242Z,38.62
2016-12-27T02:40:51.835Z,38.53
2016-12-27T02:41:32.443Z,38.53
2016-12-27T02:42:13.033Z,38.53
2016-12-27T02:42:53.617Z,38.62
2016-12-27T02:43:34.213Z,38.53
2016-12-27T02:44:14.812Z,38.71
2016-12-27T02:44:55.415Z,38.53
2016-12-27T02:45:36.005Z,38.53
2016-12-27T02:46:16.590Z,38.53
2016-12-27T02:46:57.170Z,38.53
2016-12-27T02:47:37.756Z,38.62
2016-12-27T02:48:18.346Z,38.62
2016-12-27T02:48:58.947Z,38.71
2016-12-27T02:49:39.531Z,38.43
2016-12-27T02:50:20.125Z,38.43
2016-12-27T02:51:00.700Z,38.71
2016-12-27T02:51:41.291Z,38.71
2016-12-27T02:52:21.904Z,38.53
2016-12-27T02:53:02.495Z,38.81
2016-12-27T02:53:43.100Z,38.53
2016-12-27T02:54:23.695Z,38.62
2016-12-27T02:55:04.289Z,38.53
2016-12-27T02:55:44.869Z,38.62
2016-12-27T02:56:25.455Z,38.62
2016-12-27T02:57:06.051Z,38.62
2016-12-27T02:57:46.647Z,38.53
2016-12-27T02:58:27.240Z,38.62
2016-12-27T02:59:07.858Z,38.53
2016-12-27T02:59:48.441Z,38.62
2016-12-27T03:00:29.028Z,38.53
2016-12-27T03:01:09.610Z,38.43
2016-12-27T03:01:50.200Z,38.43
2016-12-27T03:02:30.788Z,38.91
2016-12-27T03:03:11.383Z,38.62
2016-12-27T03:03:51.973Z,38.53
2016-12-27T03:04:32.576Z,38.53
2016-12-27T03:05:13.160Z,38.71
2016-12-27T03:05:53.735Z,38.53
2016-12-27T03:06:34.333Z,38.62
2016-12-27T03:07:14.929Z,38.53
2016-12-27T03:07:55.519Z,38.53
2016-12-27T03:08:36.100Z,38.62
2016-12-27T03:09:16.692Z,38.62
2016-12-27T03:09:57.281Z,38.53
2016-12-27T03:10:37.876Z,38.53
2016-12-27T03:11:18.457Z,38.33
2016-12-27T03:11:59.042Z,38.62
2016-12-27T03:12:39.644Z,38.62
2016-12-27T03:13:20.233Z,38.62
2016-12-27T03:14:00.829Z,38.53
2016-12-27T03:14:41.410Z,38.62
2016-12-27T03:15:21.986Z,38.33
2016-12-27T03:16:02.578Z,38.62
2016-12-27T03:16:43.180Z,38.71
2016-12-27T03:17:23.773Z,38.53
2016-12-27T03:18:04.361Z,38.33
2016-12-27T03:18:44.959Z,38.33
2016-12-27T03:19:25.548Z,38.71
2016-12-27T03:20:06.140Z,38.62
2016-12-27T03:20:46.730Z,38.33
2016-12-27T03:21:27.319Z,38.53
2016-12-27T03:22:07.916Z,38.71
2016-12-27T03:22:48.507Z,38.53
2016-12-27T03:23:29.079Z,38.71
2016-12-27T03:24:09.666Z,38.62
2016-12-27T03:24:50.265Z,38.53
2016-12-27T03:25:30.863Z,38.43
2016-12-27T03:26:11.449Z,38.53
2016-12-27T03:26:52.033Z,38.33
2016-12-27T03:27:32.628Z,38.71
2016-12-27T03:28:13.222Z,38.62
2016-12-27T03:28:53.820Z,38.53
2016-12-27T03:29:34.416Z,38.43
2016-12-27T03:30:14.997Z,38.33
2016-12-27T03:30:55.598Z,38.62
2016-12-27T03:31:36.163Z,38.62
2016-12-27T03:32:16.754Z,38.53
2016-12-27T03:32:57.332Z,38.43
2016-12-27T03:33:37.930Z,38.33
2016-12-27T03:34:18.522Z,38.53
2016-12-27T03:34:59.106Z,38.33
2016-12-27T03:35:39.692Z,38.43
2016-12-27T03:36:20.300Z,38.33
2016-12-27T03:37:00.899Z,38.33
2016-12-27T03:37:41.504Z,38.43
2016-12-27T03:38:22.098Z,38.33
2016-12-27T03:39:02.681Z,38.33
2016-12-27T03:39:43.281Z,38.62
2016-12-27T03:40:23.857Z,38.53
2016-12-27T03:41:04.463Z,38.62
2016-12-27T03:41:45.062Z,38.43
2016-12-27T03:42:25.643Z,38.33
2016-12-27T03:43:06.225Z,38.23
2016-12-27T03:43:46.806Z,38.23
2016-12-27T03:44:27.403Z,38.33
2016-12-27T03:45:08.008Z,38.53
2016-12-27T03:45:48.586Z,38.43
2016-12-27T03:46:29.167Z,38.53
2016-12-27T03:47:09.753Z,38.53
2016-12-27T03:47:50.327Z,38.33
2016-12-27T03:48:30.937Z,38.33
2016-12-27T03:49:11.534Z,38.43
2016-12-27T03:49:52.137Z,38.71
2016-12-27T03:50:32.719Z,38.71
2016-12-27T03:51:13.318Z,38.33
2016-12-27T03:51:53.908Z,38.53
2016-12-27T03:52:34.491Z,38.62
2016-12-27T03:53:15.070Z,38.62
2016-12-27T03:53:55.670Z,38.53
2016-12-27T03:54:36.255Z,38.23
2016-12-27T03:55:16.852Z,38.14
2016-12-27T03:55:57.443Z,38.33
2016-12-27T03:56:38.026Z,38.43
2016-12-27T03:57:18.611Z,38.43
2016-12-27T03:57:59.197Z,38.33
2016-12-27T03:58:39.789Z,38.33
2016-12-27T03:59:20.384Z,38.53
2016-12-27T04:00:00.966Z,38.71
2016-12-27T04:00:41.548Z,38.53
2016-12-27T04:01:22.169Z,38.62
2016-12-27T04:02:02.752Z,38.14
2016-12-27T04:02:43.352Z,38.23
2016-12-27T04:03:23.948Z,38.53
2016-12-27T04:04:04.525Z,38.33
2016-12-27T04:04:45.112Z,38.62
2016-12-27T04:05:25.703Z,38.53
2016-12-27T04:06:06.280Z,38.62
2016-12-27T04:06:46.862Z,38.62
2016-12-27T04:07:27.453Z,38.33
2016-12-27T04:08:08.031Z,38.33
2016-12-27T04:08:48.626Z,38.62
2016-12-27T04:09:29.229Z,38.14
2016-12-27T04:10:09.817Z,38.33
2016-12-27T04:10:50.404Z,38.62
2016-12-27T04:11:30.993Z,38.71
2016-12-27T04:12:11.573Z,38.23
2016-12-27T04:12:52.163Z,38.71
2016-12-27T04:13:32.747Z,38.53
2016-12-27T04:14:13.329Z,38.23
2016-12-27T04:14:53.907Z,38.53
2016-12-27T04:15:34.500Z,38.62
2016-12-27T04:16:15.768Z,38.62
2016-12-27T04:16:56.360Z,38.23
2016-12-27T04:17:36.950Z,38.62
2016-12-27T04:18:17.529Z,38.43
2016-12-27T04:18:58.139Z,38.23
2016-12-27T04:19:38.739Z,38.14
2016-12-27T04:20:19.332Z,38.14
2016-12-27T04:20:59.938Z,38.23
2016-12-27T04:21:40.516Z,38.23
2016-12-27T04:22:21.103Z,38.14
2016-12-27T04:23:01.695Z,38.53
2016-12-27T04:23:42.288Z,38.23
2016-12-27T04:24:22.876Z,38.14
2016-12-27T04:25:03.459Z,38.62
2016-12-27T04:25:44.046Z,38.53
2016-12-27T04:26:24.630Z,38.43
2016-12-27T04:27:05.210Z,38.23
2016-12-27T04:27:45.806Z,38.33
2016-12-27T04:28:26.394Z,38.23
2016-12-27T04:29:06.970Z,38.53
2016-12-27T04:29:47.558Z,38.23
2016-12-27T04:30:28.151Z,38.14
2016-12-27T04:31:08.742Z,38.23
2016-12-27T04:31:49.324Z,38.23
2016-12-27T04:32:29.932Z,38.53
2016-12-27T04:33:10.513Z,38.33
2016-12-27T04:33:51.095Z,38.43
2016-12-27T04:34:31.682Z,38.23
2016-12-27T04:35:12.269Z,38.62
2016-12-27T04:35:52.867Z,38.43
2016-12-27T04:36:33.449Z,38.43
2016-12-27T04:37:14.043Z,38.43
2016-12-27T04:37:54.641Z,38.71
2016-12-27T04:38:35.228Z,38.43
2016-12-27T04:39:15.853Z,38.04
2016-12-27T04:39:56.449Z,38.71
2016-12-27T04:40:37.041Z,38.53
2016-12-27T04:41:17.632Z,38.43
2016-12-27T04:41:58.228Z,38.33
2016-12-27T04:42:38.814Z,38.43
2016-12-27T04:43:19.402Z,38.43
2016-12-27T04:43:59.989Z,38.33
2016-12-27T04:44:40.594Z,38.43
2016-12-27T04:45:21.196Z,38.71
2016-12-27T04:46:01.778Z,38.71
2016-12-27T04:46:42.371Z,38.33
2016-12-27T04:47:22.961Z,38.71
2016-12-27T04:48:03.545Z,37.95
2016-12-27T04:48:44.132Z,38.04
2016-12-27T04:49:24.720Z,37.95
2016-12-27T04:50:05.301Z,38.71
2016-12-27T04:50:45.886Z,38.71
2016-12-27T04:51:26.473Z,38.71
2016-12-27T04:52:07.072Z,38.04
2016-12-27T04:52:47.669Z,38.04
2016-12-27T04:53:28.262Z,37.95
2016-12-27T04:54:08.850Z,38.04
2016-12-27T04:54:49.464Z,38.53
2016-12-27T04:55:30.049Z,38.71
2016-12-27T04:56:10.636Z,38.62
2016-12-27T04:56:51.226Z,38.14
2016-12-27T04:57:31.821Z,38.04
2016-12-27T04:58:12.421Z,37.95
2016-12-27T04:58:53.003Z,38.62
2016-12-27T04:59:33.600Z,37.95
2016-12-27T05:00:14.182Z,38.14
2016-12-27T05:00:54.789Z,38.62
2016-12-27T05:01:35.385Z,37.95
2016-12-27T05:02:15.978Z,38.14
2016-12-27T05:02:56.557Z,38.04
2016-12-27T05:03:37.149Z,38.23
2016-12-27T05:04:17.747Z,38.04
2016-12-27T05:04:58.357Z,38.04
2016-12-27T05:05:38.947Z,38.14
2016-12-27T05:06:19.537Z,38.14
2016-12-27T05:07:00.135Z,38.14
2016-12-27T05:07:40.735Z,38.62
2016-12-27T05:08:21.334Z,37.95
2016-12-27T05:09:01.942Z,37.95
2016-12-27T05:09:42.536Z,38.04
2016-12-27T05:10:23.127Z,38.43
2016-12-27T05:11:03.715Z,38.14
2016-12-27T05:11:44.312Z,38.14
2016-12-27T05:12:24.897Z,38.23
2016-12-27T05:13:05.479Z,38.23
2016-12-27T05:13:46.068Z,37.95
2016-12-27T05:14:26.654Z,38.14
2016-12-27T05:15:07.250Z,38.14
2016-12-27T05:15:47.826Z,38.14
2016-12-27T05:16:28.410Z,38.14
2016-12-27T05:17:09.018Z,38.33
2016-12-27T05:17:49.613Z,38.23
2016-12-27T05:18:30.229Z,38.14
2016-12-27T05:19:10.824Z,37.95
2016-12-27T05:19:51.416Z,38.43
2016-12-27T05:20:32.019Z,38.71
2016-12-27T05:21:12.608Z,38.62
2016-12-27T05:21:53.224Z,38.43
2016-12-27T05:22:33.811Z,38.04
2016-12-27T05:23:14.391Z,37.95
2016-12-27T05:23:54.978Z,38.62
2016-12-27T05:24:35.564Z,38.43
2016-12-27T05:25:16.143Z,38.23
2016-12-27T05:25:56.731Z,38.23
2016-12-27T05:26:37.343Z,37.95
2016-12-27T05:27:17.949Z,38.14
2016-12-27T05:27:58.546Z,38.14
2016-12-27T05:28:39.140Z,38.14
2016-12-27T05:29:19.717Z,38.23
2016-12-27T05:30:00.295Z,38.23
2016-12-27T05:30:40.882Z,38.23
2016-12-27T05:31:21.475Z,38.23
2016-12-27T05:32:02.066Z,38.04
2016-12-27T05:32:42.660Z,38.23
2016-12-27T05:33:23.258Z,38.33
2016-12-27T05:34:03.864Z,38.23
2016-12-27T05:34:44.455Z,38.04
2016-12-27T05:35:25.048Z,38.23
2016-12-27T05:36:05.666Z,38.04
2016-12-27T05:36:46.256Z,38.23
2016-12-27T05:37:26.864Z,38.23
2016-12-27T05:38:07.462Z,38.04
2016-12-27T05:38:48.067Z,38.33
2016-12-27T05:39:28.664Z,38.14
2016-12-27T05:40:09.270Z,38.14
2016-12-27T05:40:49.865Z,38.04
2016-12-27T05:41:30.469Z,38.23
2016-12-27T05:42:11.067Z,38.23
2016-12-27T05:42:51.673Z,38.23
2016-12-27T05:43:32.271Z,38.14
2016-12-27T05:44:12.877Z,38.14
2016-12-27T05:44:53.449Z,38.23
2016-12-27T05:45:34.035Z,38.14
2016-12-27T05:46:14.632Z,38.14
2016-12-27T05:46:55.224Z,38.43
2016-12-27T05:47:35.815Z,38.23
2016-12-27T05:48:16.396Z,38.23
2016-12-27T05:48:56.989Z,38.14
2016-12-27T05:49:37.599Z,38.23
2016-12-27T05:50:18.191Z,37.95
2016-12-27T05:50:58.795Z,37.85
2016-12-27T05:51:39.398Z,37.95
2016-12-27T05:52:19.969Z,37.95
2016-12-27T05:53:00.560Z,38.23
2016-12-27T05:53:41.151Z,38.14
2016-12-27T05:54:21.736Z,37.95
2016-12-27T05:55:02.316Z,38.23
2016-12-27T05:55:42.930Z,38.23
2016-12-27T05:56:23.518Z,37.95
2016-12-27T05:57:04.112Z,37.93
2016-12-27T05:57:44.703Z,38.14
2016-12-27T05:58:25.294Z,38.23
2016-12-27T05:59:05.878Z,37.95
2016-12-27T05:59:46.468Z,37.95
2016-12-27T06:00:27.063Z,38.14
2016-12-27T06:01:07.646Z,38.14
2016-12-27T06:01:48.236Z,37.95
2016-12-27T06:02:28.825Z,38.14
2016-12-27T06:03:09.422Z,38.21
2016-12-27T06:03:50.014Z,38.33
2016-12-27T06:04:30.608Z,38.33
2016-12-27T06:05:11.190Z,38.12
2016-12-27T06:05:51.778Z,38.33
2016-12-27T06:06:32.366Z,37.95
2016-12-27T06:07:12.953Z,38.04
2016-12-27T06:07:53.532Z,38.14
2016-12-27T06:08:34.127Z,38.12
2016-12-27T06:09:14.725Z,37.95
2016-12-27T06:09:55.327Z,38.12
2016-12-27T06:10:35.905Z,37.95
2016-12-27T06:11:16.479Z,38.04
2016-12-27T06:11:57.067Z,37.93
2016-12-27T06:12:37.648Z,37.93
2016-12-27T06:13:18.232Z,38.04
2016-12-27T06:13:58.812Z,37.93
2016-12-27T06:14:39.414Z,37.93
2016-12-27T06:15:20.001Z,38.02
2016-12-27T06:16:00.577Z,38.12
2016-12-27T06:16:41.164Z,38.04
2016-12-27T06:17:21.761Z,37.95
2016-12-27T06:18:02.361Z,37.95
2016-12-27T06:18:42.963Z,37.85
2016-12-27T06:19:23.552Z,38.14
2016-12-27T06:20:04.149Z,38.04
2016-12-27T06:20:44.746Z,38.33
2016-12-27T06:21:25.337Z,38.33
2016-12-27T06:22:05.920Z,37.93
2016-12-27T06:22:46.504Z,38.12
2016-12-27T06:23:27.102Z,37.95
2016-12-27T06:24:07.688Z,38.14
2016-12-27T06:24:48.265Z,38.04
2016-12-27T06:25:28.878Z,38.02
2016-12-27T06:26:09.468Z,38.02
2016-12-27T06:26:50.051Z,38.12
2016-12-27T06:27:30.641Z,37.93
2016-12-27T06:28:11.226Z,38.14
2016-12-27T06:28:51.810Z,37.95
2016-12-27T06:29:32.392Z,37.85
2016-12-27T06:30:12.990Z,38.02
2016-12-27T06:30:53.582Z,37.93
2016-12-27T06:31:34.179Z,38.04
2016-12-27T06:32:14.776Z,38.14
2016-12-27T06:32:55.361Z,38.33
2016-12-27T06:33:35.939Z,38.12
2016-12-27T06:34:16.524Z,37.63
2016-12-27T06:34:57.108Z,38.21
2016-12-27T06:35:37.696Z,38.12
2016-12-27T06:36:18.288Z,38.33
2016-12-27T06:36:58.879Z,38.23
2016-12-27T06:37:39.463Z,38.14
2016-12-27T06:38:20.067Z,37.93
2016-12-27T06:39:00.639Z,38.21
2016-12-27T06:39:41.231Z,37.93
2016-12-27T06:40:21.820Z,38.02
2016-12-27T06:41:02.404Z,37.83
2016-12-27T06:41:43.000Z,37.83
2016-12-27T06:42:23.590Z,37.93
2016-12-27T06:43:04.172Z,37.85
2016-12-27T06:43:44.748Z,38.12
2016-12-27T06:44:25.333Z,38.12
2016-12-27T06:45:05.917Z,37.83
2016-12-27T06:45:46.513Z,38.12
2016-12-27T06:46:27.111Z,37.93
2016-12-27T06:47:07.723Z,37.73
2016-12-27T06:47:48.306Z,37.54
2016-12-27T06:48:28.912Z,37.65
2016-12-27T06:49:09.500Z,37.83
2016-12-27T06:49:50.099Z,38.12
2016-12-27T06:50:30.678Z,37.83
2016-12-27T06:51:11.259Z,37.83
2016-12-27T06:51:51.833Z,37.83
2016-12-27T06:52:32.428Z,37.63
2016-12-27T06:53:13.021Z,37.73
2016-12-27T06:53:53.610Z,37.75
2016-12-27T06:54:34.203Z,37.83
2016-12-27T06:55:14.797Z,37.83
2016-12-27T06:55:55.377Z,37.83
2016-12-27T06:56:35.963Z,37.83
2016-12-27T06:57:16.545Z,37.56
2016-12-27T06:57:57.133Z,37.95
2016-12-27T06:58:37.718Z,37.63
2016-12-27T06:59:18.296Z,37.83
2016-12-27T06:59:58.878Z,37.83
2016-12-27T07:00:39.478Z,37.85
2016-12-27T07:01:20.074Z,37.65
2016-12-27T07:02:00.662Z,37.46
2016-12-27T07:02:41.244Z,37.73
2016-12-27T07:03:21.844Z,37.75
2016-12-27T07:04:02.429Z,37.83
2016-12-27T07:04:43.010Z,37.73
2016-12-27T07:05:23.588Z,38.14
2016-12-27T07:06:04.170Z,37.73
2016-12-27T07:06:44.789Z,37.75
2016-12-27T07:07:25.370Z,37.85
2016-12-27T07:08:05.959Z,37.75
2016-12-27T07:08:46.544Z,38.02
2016-12-27T07:09:27.125Z,37.56
2016-12-27T07:10:07.716Z,37.83
2016-12-27T07:10:48.313Z,37.63
2016-12-27T07:11:28.896Z,37.73
2016-12-27T07:12:09.478Z,37.85
2016-12-27T07:12:50.065Z,37.73
2016-12-27T07:13:30.648Z,37.75
2016-12-27T07:14:11.224Z,37.63
2016-12-27T07:14:51.807Z,37.54
2016-12-27T07:15:32.423Z,37.85
2016-12-27T07:16:13.013Z,37.85
2016-12-27T07:16:53.609Z,38.02
2016-12-27T07:17:34.204Z,37.83
2016-12-27T07:18:14.794Z,37.75
2016-12-27T07:18:55.381Z,37.93
2016-12-27T07:19:35.968Z,37.54
2016-12-27T07:20:16.550Z,37.83
2016-12-27T07:20:57.128Z,37.73
2016-12-27T07:21:37.732Z,37.83
2016-12-27T07:22:18.335Z,37.63
2016-12-27T07:22:58.919Z,38.14
2016-12-27T07:23:39.505Z,37.75
2016-12-27T07:24:20.114Z,37.73
2016-12-27T07:25:00.732Z,37.75
2016-12-27T07:25:41.315Z,37.75
2016-12-27T07:26:21.926Z,37.83
2016-12-27T07:27:02.520Z,37.83
2016-12-27T07:27:43.108Z,37.75
2016-12-27T07:28:23.721Z,37.75
2016-12-27T07:29:04.314Z,38.12
2016-12-27T07:29:44.902Z,38.04
2016-12-27T07:30:25.513Z,37.73
2016-12-27T07:31:06.106Z,37.73
2016-12-27T07:31:46.698Z,37.63
2016-12-27T07:32:27.305Z,37.63
2016-12-27T07:33:07.910Z,38.12
2016-12-27T07:33:48.513Z,37.75
2016-12-27T07:34:29.104Z,37.83
2016-12-27T07:35:09.706Z,37.63
2016-12-27T07:35:50.295Z,37.75
2016-12-27T07:36:30.887Z,37.85
2016-12-27T07:37:11.529Z,37.63
2016-12-27T07:37:52.121Z,37.73
2016-12-27T07:38:32.730Z,37.73
2016-12-27T07:39:13.356Z,37.83
2016-12-27T07:39:53.986Z,37.63
2016-12-27T07:40:34.572Z,37.73
2016-12-27T07:41:15.189Z,37.75
2016-12-27T07:41:55.784Z,37.75
2016-12-27T07:42:36.377Z,37.83
2016-12-27T07:43:16.980Z,37.85
2016-12-27T07:43:57.587Z,37.83
2016-12-27T07:44:38.174Z,37.83
2016-12-27T07:45:18.764Z,37.73
2016-12-27T07:45:59.363Z,37.65
2016-12-27T07:46:39.994Z,37.85
2016-12-27T07:47:20.604Z,38.02
2016-12-27T07:48:01.200Z,38.12
2016-12-27T07:48:41.796Z,38.02
2016-12-27T07:49:22.383Z,37.93
2016-12-27T07:50:02.976Z,37.93
2016-12-27T07:50:43.576Z,38.04
2016-12-27T07:51:24.180Z,37.56
2016-12-27T07:52:04.781Z,37.85
2016-12-27T07:52:45.378Z,37.73
2016-12-27T07:53:25.974Z,37.73
2016-12-27T07:54:06.563Z,37.83
2016-12-27T07:54:47.160Z,37.83
2016-12-27T07:55:27.776Z,37.73
2016-12-27T07:56:08.363Z,37.73
2016-12-27T07:56:48.978Z,37.83
2016-12-27T07:57:29.580Z,37.75
2016-12-27T07:58:10.174Z,37.54
2016-12-27T07:58:50.782Z,37.85
2016-12-27T07:59:31.365Z,37.73
2016-12-27T08:00:11.945Z,37.75
2016-12-27T08:00:52.536Z,37.75
2016-12-27T08:01:33.143Z,37.75
2016-12-27T08:02:13.749Z,37.73
2016-12-27T08:02:54.347Z,37.63
2016-12-27T08:03:34.963Z,37.75
2016-12-27T08:04:15.562Z,37.54
2016-12-27T08:04:56.143Z,38.12
2016-12-27T08:05:36.742Z,37.63
2016-12-27T08:06:17.339Z,37.45
2016-12-27T08:06:57.941Z,37.54
2016-12-27T08:07:38.533Z,37.75
2016-12-27T08:08:19.138Z,37.65
2016-12-27T08:08:59.781Z,37.75
2016-12-27T08:09:40.380Z,37.63
2016-12-27T08:10:20.985Z,37.75
2016-12-27T08:11:01.579Z,37.75
2016-12-27T08:11:42.168Z,37.63
2016-12-27T08:12:22.778Z,37.85
2016-12-27T08:13:03.369Z,37.73
2016-12-27T08:13:43.962Z,37.85
2016-12-27T08:14:24.586Z,37.75
2016-12-27T08:15:05.172Z,37.75
2016-12-27T08:15:45.774Z,37.85
2016-12-27T08:16:26.364Z,37.65
2016-12-27T08:17:06.961Z,37.65
2016-12-27T08:17:47.552Z,37.85
2016-12-27T08:18:28.136Z,37.65
2016-12-27T08:19:08.728Z,37.85
2016-12-27T08:19:49.325Z,37.85
2016-12-27T08:20:29.913Z,37.65
2016-12-27T08:21:10.559Z,37.85
2016-12-27T08:21:51.182Z,37.75
2016-12-27T08:22:31.761Z,37.75
2016-12-27T08:23:12.342Z,37.75
2016-12-27T08:23:52.930Z,37.85
2016-12-27T08:24:33.569Z,37.65
2016-12-27T08:25:14.162Z,37.85
2016-12-27T08:25:54.762Z,37.75
2016-12-27T08:26:35.365Z,37.56
2016-12-27T08:27:15.976Z,37.17
2016-12-27T08:27:56.573Z,37.65
2016-12-27T08:28:37.154Z,37.37
2016-12-27T08:29:17.738Z,37.56
2016-12-27T08:29:58.319Z,37.27
2016-12-27T08:30:38.906Z,36.79
2016-12-27T08:31:19.493Z,36.69
2016-12-27T08:32:00.076Z,37.17
2016-12-27T08:32:40.680Z,37.37
2016-12-27T08:33:21.267Z,37.17
2016-12-27T08:34:01.865Z,37.17
2016-12-27T08:34:42.478Z,37.08
2016-12-27T08:35:23.073Z,36.79
2016-12-27T08:36:03.661Z,36.88
2016-12-27T08:36:44.256Z,36.79
2016-12-27T08:37:24.863Z,36.79
2016-12-27T08:38:05.468Z,36.69
2016-12-27T08:38:46.072Z,36.01
2016-12-27T08:39:26.741Z,36.21
2016-12-27T08:40:07.329Z,36.67
2016-12-27T08:40:47.928Z,36.4
2016-12-27T08:41:28.534Z,36.11
2016-12-27T08:42:09.134Z,36.4
2016-12-27T08:42:49.775Z,36.79